KPGV/PGV METAR and TAF weather

Enter ICAO airport designator
Station Type Date Time Source
KPGV METAR 2019/10/22 14:15 UTC NOAA

KPGV 221415Z AUTO 11004KT 10SM SCT020 SCT048 18/16 A3000 RMK AO2


Station Type Date Time Source
KPGV Decoded METAR 2019/10/22 14:15 UTC NOAA

Pitt-Greenville Airport, NC, United States (KPGV) 35-38N 077-24W
Oct 22, 2019 - 10:15 AM EDT / 2019.10.22 1415 UTC
Wind: from the ESE (110 degrees) at 5 MPH (4 KT):0
Visibility: 10 mile(s):0
Sky conditions: partly cloudy
Temperature: 64 F (18 C)
Dew Point: 60 F (16 C)
Relative Humidity: 88%
Pressure (altimeter): 30 in. Hg (1015 hPa)
ob: KPGV 221415Z AUTO 11004KT 10SM SCT020 SCT048 18/16 A3000 RMK AO2
cycle: 14

Station Type Date Time Source
KPGV TAF 2019/10/22 13:22 UTC NOAA

TAF
AMD KPGV 221320Z 2213/2312 VRB03KT P6SM SCT020 SCT250
TEMPO 2213/2215 BKN003
FM221700 15009KT P6SM VCSH SCT030 SCT250
FM222200 17007KT P6SM SCT030
FM230500 30007KT P6SM SCT250
AMD LTD TO CLD VIS AND WIND

Example: see airport list